sensor_id;sensor_type;location;lat;lon;timestamp;temperature;humidity
67870;DHT22;54673;52.262;6.830;2023-07-22T00:02:23;23.90;43.20
67870;DHT22;54673;52.262;6.830;2023-07-22T00:04:51;23.90;43.30
67870;DHT22;54673;52.262;6.830;2023-07-22T00:07:18;23.90;43.20
67870;DHT22;54673;52.262;6.830;2023-07-22T00:09:43;23.90;43.20
67870;DHT22;54673;52.262;6.830;2023-07-22T00:12:09;23.90;43.20
67870;DHT22;54673;52.262;6.830;2023-07-22T00:14:40;23.80;43.40
67870;DHT22;54673;52.262;6.830;2023-07-22T00:17:06;23.80;43.10
67870;DHT22;54673;52.262;6.830;2023-07-22T00:19:31;23.80;43.30
67870;DHT22;54673;52.262;6.830;2023-07-22T00:21:57;23.80;43.20
67870;DHT22;54673;52.262;6.830;2023-07-22T00:24:22;23.80;43.20
67870;DHT22;54673;52.262;6.830;2023-07-22T00:26:48;23.80;43.10
67870;DHT22;54673;52.262;6.830;2023-07-22T00:29:15;23.90;43.20
67870;DHT22;54673;52.262;6.830;2023-07-22T00:31:41;23.90;43.20
67870;DHT22;54673;52.262;6.830;2023-07-22T00:34:07;23.80;43.20
67870;DHT22;54673;52.262;6.830;2023-07-22T00:36:32;23.80;43.10
67870;DHT22;54673;52.262;6.830;2023-07-22T00:38:58;23.80;43.10
67870;DHT22;54673;52.262;6.830;2023-07-22T00:41:23;23.80;43.20
67870;DHT22;54673;52.262;6.830;2023-07-22T00:43:49;23.80;43.20
67870;DHT22;54673;52.262;6.830;2023-07-22T00:46:14;23.80;43.20
67870;DHT22;54673;52.262;6.830;2023-07-22T00:48:40;23.80;43.10
67870;DHT22;54673;52.262;6.830;2023-07-22T00:51:07;23.80;43.10
67870;DHT22;54673;52.262;6.830;2023-07-22T00:53:33;23.70;43.10
67870;DHT22;54673;52.262;6.830;2023-07-22T00:55:58;23.80;43.20
67870;DHT22;54673;52.262;6.830;2023-07-22T00:58:24;23.80;43.20
67870;DHT22;54673;52.262;6.830;2023-07-22T01:00:49;23.70;43.20
67870;DHT22;54673;52.262;6.830;2023-07-22T01:03:15;23.80;43.20
67870;DHT22;54673;52.262;6.830;2023-07-22T01:05:41;23.80;43.50
67870;DHT22;54673;52.262;6.830;2023-07-22T01:08:07;23.70;43.40
67870;DHT22;54673;52.262;6.830;2023-07-22T01:10:32;23.70;43.30
67870;DHT22;54673;52.262;6.830;2023-07-22T01:12:58;23.70;43.30
67870;DHT22;54673;52.262;6.830;2023-07-22T01:15:25;23.70;43.30
67870;DHT22;54673;52.262;6.830;2023-07-22T01:17:51;23.70;43.30
67870;DHT22;54673;52.262;6.830;2023-07-22T01:20:17;23.70;43.30
67870;DHT22;54673;52.262;6.830;2023-07-22T01:22:51;23.70;43.40
67870;DHT22;54673;52.262;6.830;2023-07-22T01:25:20;22.80;43.00
67870;DHT22;54673;52.262;6.830;2023-07-22T01:27:47;23.70;43.40
67870;DHT22;54673;52.262;6.830;2023-07-22T01:30:13;23.70;43.40
67870;DHT22;54673;52.262;6.830;2023-07-22T01:32:39;23.70;43.50
67870;DHT22;54673;52.262;6.830;2023-07-22T01:35:05;23.70;43.50
67870;DHT22;54673;52.262;6.830;2023-07-22T01:37:33;23.70;43.60
67870;DHT22;54673;52.262;6.830;2023-07-22T01:39:59;23.70;43.60
67870;DHT22;54673;52.262;6.830;2023-07-22T01:42:24;23.70;43.60
67870;DHT22;54673;52.262;6.830;2023-07-22T01:44:50;23.70;43.70
67870;DHT22;54673;52.262;6.830;2023-07-22T01:47:16;23.70;43.70
67870;DHT22;54673;52.262;6.830;2023-07-22T01:49:41;23.60;43.70
67870;DHT22;54673;52.262;6.830;2023-07-22T01:52:07;23.70;43.70
67870;DHT22;54673;52.262;6.830;2023-07-22T01:54:33;23.70;43.70
67870;DHT22;54673;52.262;6.830;2023-07-22T01:56:59;23.70;43.70
67870;DHT22;54673;52.262;6.830;2023-07-22T01:59:24;23.60;43.80
67870;DHT22;54673;52.262;6.830;2023-07-22T02:01:50;23.60;43.80
67870;DHT22;54673;52.262;6.830;2023-07-22T02:04:17;23.60;43.70
67870;DHT22;54673;52.262;6.830;2023-07-22T02:06:42;23.70;43.70
67870;DHT22;54673;52.262;6.830;2023-07-22T02:09:08;23.70;43.70
67870;DHT22;54673;52.262;6.830;2023-07-22T02:11:35;23.60;43.70
67870;DHT22;54673;52.262;6.830;2023-07-22T02:14:01;23.60;43.70
67870;DHT22;54673;52.262;6.830;2023-07-22T02:16:26;23.60;43.70
67870;DHT22;54673;52.262;6.830;2023-07-22T02:18:52;23.60;43.60
67870;DHT22;54673;52.262;6.830;2023-07-22T02:21:17;23.60;43.60
67870;DHT22;54673;52.262;6.830;2023-07-22T02:23:43;23.60;43.60
67870;DHT22;54673;52.262;6.830;2023-07-22T02:26:08;23.60;43.50
67870;DHT22;54673;52.262;6.830;2023-07-22T02:28:34;23.60;43.50
67870;DHT22;54673;52.262;6.830;2023-07-22T02:31:02;23.60;43.60
67870;DHT22;54673;52.262;6.830;2023-07-22T02:33:28;23.60;43.50
67870;DHT22;54673;52.262;6.830;2023-07-22T02:35:53;23.60;43.60
67870;DHT22;54673;52.262;6.830;2023-07-22T02:38:19;23.60;44.30
67870;DHT22;54673;52.262;6.830;2023-07-22T02:40:44;23.50;43.50
67870;DHT22;54673;52.262;6.830;2023-07-22T02:43:10;23.60;43.60
67870;DHT22;54673;52.262;6.830;2023-07-22T02:45:36;23.50;43.50
67870;DHT22;54673;52.262;6.830;2023-07-22T02:48:02;23.50;43.40
67870;DHT22;54673;52.262;6.830;2023-07-22T02:50:28;23.50;43.50
67870;DHT22;54673;52.262;6.830;2023-07-22T02:52:54;23.50;43.50
67870;DHT22;54673;52.262;6.830;2023-07-22T02:55:20;23.50;43.60
67870;DHT22;54673;52.262;6.830;2023-07-22T02:57:46;23.50;43.50
67870;DHT22;54673;52.262;6.830;2023-07-22T03:00:14;23.50;43.50
67870;DHT22;54673;52.262;6.830;2023-07-22T03:02:49;23.50;44.50
67870;DHT22;54673;52.262;6.830;2023-07-22T03:05:15;23.50;43.50
67870;DHT22;54673;52.262;6.830;2023-07-22T03:07:42;23.50;43.60
67870;DHT22;54673;52.262;6.830;2023-07-22T03:10:08;23.50;43.60
67870;DHT22;54673;52.262;6.830;2023-07-22T03:12:34;23.50;43.50
67870;DHT22;54673;52.262;6.830;2023-07-22T03:15:00;23.50;43.60
67870;DHT22;54673;52.262;6.830;2023-07-22T03:17:26;23.50;43.60
67870;DHT22;54673;52.262;6.830;2023-07-22T03:19:51;23.50;43.60
67870;DHT22;54673;52.262;6.830;2023-07-22T03:22:17;23.40;43.50
67870;DHT22;54673;52.262;6.830;2023-07-22T03:24:44;23.50;43.60
67870;DHT22;54673;52.262;6.830;2023-07-22T03:27:11;23.50;43.60
67870;DHT22;54673;52.262;6.830;2023-07-22T03:29:38;23.50;43.60
67870;DHT22;54673;52.262;6.830;2023-07-22T03:32:04;23.50;43.70
67870;DHT22;54673;52.262;6.830;2023-07-22T03:34:30;23.50;43.80
67870;DHT22;54673;52.262;6.830;2023-07-22T03:36:56;23.50;43.60
67870;DHT22;54673;52.262;6.830;2023-07-22T03:39:22;23.50;43.50
67870;DHT22;54673;52.262;6.830;2023-07-22T03:41:48;23.50;43.50
67870;DHT22;54673;52.262;6.830;2023-07-22T03:44:13;23.40;43.50
67870;DHT22;54673;52.262;6.830;2023-07-22T03:46:39;23.40;43.60
67870;DHT22;54673;52.262;6.830;2023-07-22T03:49:05;23.40;43.50
67870;DHT22;54673;52.262;6.830;2023-07-22T03:51:31;23.40;43.50
67870;DHT22;54673;52.262;6.830;2023-07-22T03:53:57;23.40;43.50
67870;DHT22;54673;52.262;6.830;2023-07-22T03:56:23;23.40;43.50
67870;DHT22;54673;52.262;6.830;2023-07-22T03:58:52;23.40;43.40
67870;DHT22;54673;52.262;6.830;2023-07-22T04:01:18;23.40;43.50
67870;DHT22;54673;52.262;6.830;2023-07-22T04:03:44;23.30;43.40
67870;DHT22;54673;52.262;6.830;2023-07-22T04:06:10;23.30;43.50
67870;DHT22;54673;52.262;6.830;2023-07-22T04:08:35;23.30;43.50
67870;DHT22;54673;52.262;6.830;2023-07-22T04:11:01;23.30;43.60
67870;DHT22;54673;52.262;6.830;2023-07-22T04:13:27;23.30;43.70
67870;DHT22;54673;52.262;6.830;2023-07-22T04:15:53;23.30;43.70
67870;DHT22;54673;52.262;6.830;2023-07-22T04:18:19;23.30;43.70
67870;DHT22;54673;52.262;6.830;2023-07-22T04:20:45;23.20;43.60
67870;DHT22;54673;52.262;6.830;2023-07-22T04:23:13;23.20;43.60
67870;DHT22;54673;52.262;6.830;2023-07-22T04:25:42;23.30;43.70
67870;DHT22;54673;52.262;6.830;2023-07-22T04:28:08;23.30;43.60
67870;DHT22;54673;52.262;6.830;2023-07-22T04:30:35;23.30;43.70
67870;DHT22;54673;52.262;6.830;2023-07-22T04:33:01;23.30;43.70
67870;DHT22;54673;52.262;6.830;2023-07-22T04:35:26;23.30;43.70
67870;DHT22;54673;52.262;6.830;2023-07-22T04:37:52;23.20;43.70
67870;DHT22;54673;52.262;6.830;2023-07-22T04:40:19;23.20;43.80
67870;DHT22;54673;52.262;6.830;2023-07-22T04:42:45;23.20;43.80
67870;DHT22;54673;52.262;6.830;2023-07-22T04:45:11;23.20;44.00
67870;DHT22;54673;52.262;6.830;2023-07-22T04:47:38;23.20;44.00
67870;DHT22;54673;52.262;6.830;2023-07-22T04:50:09;23.20;44.00
67870;DHT22;54673;52.262;6.830;2023-07-22T04:52:36;23.20;44.10
67870;DHT22;54673;52.262;6.830;2023-07-22T04:55:02;23.20;44.20
67870;DHT22;54673;52.262;6.830;2023-07-22T04:57:35;23.20;44.30
67870;DHT22;54673;52.262;6.830;2023-07-22T05:00:04;23.20;44.40
67870;DHT22;54673;52.262;6.830;2023-07-22T05:02:31;23.20;44.50
67870;DHT22;54673;52.262;6.830;2023-07-22T05:04:57;23.20;44.60
67870;DHT22;54673;52.262;6.830;2023-07-22T05:07:22;23.20;44.60
67870;DHT22;54673;52.262;6.830;2023-07-22T05:09:48;23.20;44.60
67870;DHT22;54673;52.262;6.830;2023-07-22T05:12:14;23.20;44.80
67870;DHT22;54673;52.262;6.830;2023-07-22T05:14:40;23.20;44.90
67870;DHT22;54673;52.262;6.830;2023-07-22T05:17:05;23.20;44.90
67870;DHT22;54673;52.262;6.830;2023-07-22T05:19:31;23.20;45.00
67870;DHT22;54673;52.262;6.830;2023-07-22T05:21:56;23.20;45.10
67870;DHT22;54673;52.262;6.830;2023-07-22T05:24:22;23.20;45.10
67870;DHT22;54673;52.262;6.830;2023-07-22T05:26:47;23.20;46.10
67870;DHT22;54673;52.262;6.830;2023-07-22T05:29:13;23.20;45.30
67870;DHT22;54673;52.262;6.830;2023-07-22T05:31:39;23.20;45.30
67870;DHT22;54673;52.262;6.830;2023-07-22T05:34:04;23.20;45.40
67870;DHT22;54673;52.262;6.830;2023-07-22T05:36:30;23.20;45.50
67870;DHT22;54673;52.262;6.830;2023-07-22T05:38:56;23.20;45.60
67870;DHT22;54673;52.262;6.830;2023-07-22T05:41:22;23.20;45.70
67870;DHT22;54673;52.262;6.830;2023-07-22T05:43:48;23.10;45.70
67870;DHT22;54673;52.262;6.830;2023-07-22T05:46:13;23.10;45.70
67870;DHT22;54673;52.262;6.830;2023-07-22T05:48:39;23.20;45.90
67870;DHT22;54673;52.262;6.830;2023-07-22T05:51:04;23.10;45.80
67870;DHT22;54673;52.262;6.830;2023-07-22T05:53:32;23.10;45.90
67870;DHT22;54673;52.262;6.830;2023-07-22T05:55:57;23.10;45.90
67870;DHT22;54673;52.262;6.830;2023-07-22T05:58:23;23.10;46.00
67870;DHT22;54673;52.262;6.830;2023-07-22T06:00:48;23.20;46.00
67870;DHT22;54673;52.262;6.830;2023-07-22T06:03:14;23.20;46.10
67870;DHT22;54673;52.262;6.830;2023-07-22T06:05:40;23.20;46.20
67870;DHT22;54673;52.262;6.830;2023-07-22T06:08:05;23.10;46.20
67870;DHT22;54673;52.262;6.830;2023-07-22T06:10:32;23.20;46.30
67870;DHT22;54673;52.262;6.830;2023-07-22T06:12:57;23.20;46.40
67870;DHT22;54673;52.262;6.830;2023-07-22T06:15:23;23.20;46.50
67870;DHT22;54673;52.262;6.830;2023-07-22T06:17:48;23.20;46.50
67870;DHT22;54673;52.262;6.830;2023-07-22T06:20:14;23.20;46.60
67870;DHT22;54673;52.262;6.830;2023-07-22T06:22:40;23.00;46.60
67870;DHT22;54673;52.262;6.830;2023-07-22T06:25:06;23.20;46.70
67870;DHT22;54673;52.262;6.830;2023-07-22T06:27:32;23.20;46.80
67870;DHT22;54673;52.262;6.830;2023-07-22T06:29:58;23.20;46.80
67870;DHT22;54673;52.262;6.830;2023-07-22T06:32:24;23.20;46.90
67870;DHT22;54673;52.262;6.830;2023-07-22T06:34:49;23.20;47.00
67870;DHT22;54673;52.262;6.830;2023-07-22T06:37:15;23.30;47.10
67870;DHT22;54673;52.262;6.830;2023-07-22T06:39:40;23.20;47.10
67870;DHT22;54673;52.262;6.830;2023-07-22T06:42:06;23.30;47.20
67870;DHT22;54673;52.262;6.830;2023-07-22T06:44:32;23.50;47.40
67870;DHT22;54673;52.262;6.830;2023-07-22T06:46:58;23.30;47.20
67870;DHT22;54673;52.262;6.830;2023-07-22T06:49:23;23.30;47.30
67870;DHT22;54673;52.262;6.830;2023-07-22T06:51:49;23.30;47.30
67870;DHT22;54673;52.262;6.830;2023-07-22T06:54:15;23.40;47.30
67870;DHT22;54673;52.262;6.830;2023-07-22T06:56:40;23.30;47.40
67870;DHT22;54673;52.262;6.830;2023-07-22T06:59:06;23.30;47.30
67870;DHT22;54673;52.262;6.830;2023-07-22T07:01:32;23.40;47.40
67870;DHT22;54673;52.262;6.830;2023-07-22T07:03:57;23.40;47.30
67870;DHT22;54673;52.262;6.830;2023-07-22T07:06:23;23.40;47.40
67870;DHT22;54673;52.262;6.830;2023-07-22T07:08:49;23.40;47.50
67870;DHT22;54673;52.262;6.830;2023-07-22T07:11:14;23.40;47.60
67870;DHT22;54673;52.262;6.830;2023-07-22T07:13:40;23.40;47.90
67870;DHT22;54673;52.262;6.830;2023-07-22T07:16:29;23.40;47.70
67870;DHT22;54673;52.262;6.830;2023-07-22T07:18:57;23.40;47.70
67870;DHT22;54673;52.262;6.830;2023-07-22T07:21:23;23.40;47.60
67870;DHT22;54673;52.262;6.830;2023-07-22T07:23:49;23.40;47.40
67870;DHT22;54673;52.262;6.830;2023-07-22T07:26:15;23.40;47.80
67870;DHT22;54673;52.262;6.830;2023-07-22T07:28:40;23.40;48.00
67870;DHT22;54673;52.262;6.830;2023-07-22T07:31:06;23.80;48.40
67870;DHT22;54673;52.262;6.830;2023-07-22T07:33:33;23.40;48.30
67870;DHT22;54673;52.262;6.830;2023-07-22T07:35:58;23.40;48.40
67870;DHT22;54673;52.262;6.830;2023-07-22T07:38:24;23.40;48.50
67870;DHT22;54673;52.262;6.830;2023-07-22T07:40:57;23.40;48.50
67870;DHT22;54673;52.262;6.830;2023-07-22T07:43:24;23.50;48.50
67870;DHT22;54673;52.262;6.830;2023-07-22T07:45:49;23.50;48.50
67870;DHT22;54673;52.262;6.830;2023-07-22T07:48:16;23.50;48.50
67870;DHT22;54673;52.262;6.830;2023-07-22T07:50:42;23.50;48.50
67870;DHT22;54673;52.262;6.830;2023-07-22T07:53:08;23.50;48.30
67870;DHT22;54673;52.262;6.830;2023-07-22T07:55:34;23.50;48.20
67870;DHT22;54673;52.262;6.830;2023-07-22T07:57:59;23.50;48.10
67870;DHT22;54673;52.262;6.830;2023-07-22T08:00:25;23.60;48.10
67870;DHT22;54673;52.262;6.830;2023-07-22T08:02:50;23.60;47.90
67870;DHT22;54673;52.262;6.830;2023-07-22T08:05:16;23.50;47.80
67870;DHT22;54673;52.262;6.830;2023-07-22T08:07:41;23.60;47.80
67870;DHT22;54673;52.262;6.830;2023-07-22T08:10:07;23.70;47.70
67870;DHT22;54673;52.262;6.830;2023-07-22T08:12:34;23.60;47.50
67870;DHT22;54673;52.262;6.830;2023-07-22T08:15:00;23.70;47.50
67870;DHT22;54673;52.262;6.830;2023-07-22T08:17:26;23.70;47.40
67870;DHT22;54673;52.262;6.830;2023-07-22T08:19:52;23.70;47.40
67870;DHT22;54673;52.262;6.830;2023-07-22T08:22:18;23.70;47.30
67870;DHT22;54673;52.262;6.830;2023-07-22T08:24:43;23.70;47.30
67870;DHT22;54673;52.262;6.830;2023-07-22T08:27:09;23.70;47.10
67870;DHT22;54673;52.262;6.830;2023-07-22T08:29:35;23.70;47.20
67870;DHT22;54673;52.262;6.830;2023-07-22T08:32:01;23.70;47.10
67870;DHT22;54673;52.262;6.830;2023-07-22T08:34:27;23.70;47.10
67870;DHT22;54673;52.262;6.830;2023-07-22T08:36:53;23.70;47.10
67870;DHT22;54673;52.262;6.830;2023-07-22T08:39:18;23.70;46.90
67870;DHT22;54673;52.262;6.830;2023-07-22T08:41:48;23.70;46.90
67870;DHT22;54673;52.262;6.830;2023-07-22T08:44:19;23.70;46.80
67870;DHT22;54673;52.262;6.830;2023-07-22T08:46:46;23.80;46.90
67870;DHT22;54673;52.262;6.830;2023-07-22T08:49:15;23.80;46.80
67870;DHT22;54673;52.262;6.830;2023-07-22T08:51:41;23.80;46.80
67870;DHT22;54673;52.262;6.830;2023-07-22T08:54:07;23.80;46.80
67870;DHT22;54673;52.262;6.830;2023-07-22T08:56:34;23.80;46.60
67870;DHT22;54673;52.262;6.830;2023-07-22T08:59:00;23.80;46.60
67870;DHT22;54673;52.262;6.830;2023-07-22T09:01:26;23.80;46.50
67870;DHT22;54673;52.262;6.830;2023-07-22T09:03:53;23.80;46.50
67870;DHT22;54673;52.262;6.830;2023-07-22T09:06:20;23.80;46.50
67870;DHT22;54673;52.262;6.830;2023-07-22T09:08:46;23.90;46.50
67870;DHT22;54673;52.262;6.830;2023-07-22T09:11:19;23.90;46.50
67870;DHT22;54673;52.262;6.830;2023-07-22T09:13:46;23.90;46.30
67870;DHT22;54673;52.262;6.830;2023-07-22T09:16:13;23.90;46.10
67870;DHT22;54673;52.262;6.830;2023-07-22T09:18:40;24.00;46.10
67870;DHT22;54673;52.262;6.830;2023-07-22T09:21:05;24.00;46.10
67870;DHT22;54673;52.262;6.830;2023-07-22T09:23:34;24.00;46.00
67870;DHT22;54673;52.262;6.830;2023-07-22T09:26:14;24.00;45.70
67870;DHT22;54673;52.262;6.830;2023-07-22T09:28:57;24.10;45.70
67870;DHT22;54673;52.262;6.830;2023-07-22T09:31:26;24.10;45.70
67870;DHT22;54673;52.262;6.830;2023-07-22T09:33:53;24.10;45.60
67870;DHT22;54673;52.262;6.830;2023-07-22T09:36:20;24.10;45.50
67870;DHT22;54673;52.262;6.830;2023-07-22T09:38:59;24.20;45.50
67870;DHT22;54673;52.262;6.830;2023-07-22T09:41:28;24.20;45.40
67870;DHT22;54673;52.262;6.830;2023-07-22T09:43:55;24.20;45.40
67870;DHT22;54673;52.262;6.830;2023-07-22T09:46:21;24.30;45.40
67870;DHT22;54673;52.262;6.830;2023-07-22T09:48:46;24.30;45.30
67870;DHT22;54673;52.262;6.830;2023-07-22T09:51:33;24.30;45.30
67870;DHT22;54673;52.262;6.830;2023-07-22T09:54:00;24.30;45.20
67870;DHT22;54673;52.262;6.830;2023-07-22T09:56:26;24.40;45.10
67870;DHT22;54673;52.262;6.830;2023-07-22T09:58:52;24.40;45.10
67870;DHT22;54673;52.262;6.830;2023-07-22T10:01:25;24.40;45.10
67870;DHT22;54673;52.262;6.830;2023-07-22T10:03:53;24.40;45.00
67870;DHT22;54673;52.262;6.830;2023-07-22T10:06:28;24.40;45.80
67870;DHT22;54673;52.262;6.830;2023-07-22T10:09:02;24.50;45.00
67870;DHT22;54673;52.262;6.830;2023-07-22T10:11:29;24.50;44.90
67870;DHT22;54673;52.262;6.830;2023-07-22T10:13:55;24.60;45.00
67870;DHT22;54673;52.262;6.830;2023-07-22T10:16:22;24.20;44.70
67870;DHT22;54673;52.262;6.830;2023-07-22T10:18:49;24.60;45.00
67870;DHT22;54673;52.262;6.830;2023-07-22T10:21:14;24.50;44.90
67870;DHT22;54673;52.262;6.830;2023-07-22T10:23:41;24.60;45.00
67870;DHT22;54673;52.262;6.830;2023-07-22T10:26:07;24.60;45.00
67870;DHT22;54673;52.262;6.830;2023-07-22T10:28:36;24.60;45.00
67870;DHT22;54673;52.262;6.830;2023-07-22T10:31:02;24.60;45.00
67870;DHT22;54673;52.262;6.830;2023-07-22T10:33:28;24.60;45.00
67870;DHT22;54673;52.262;6.830;2023-07-22T10:36:08;24.60;45.00
67870;DHT22;54673;52.262;6.830;2023-07-22T10:38:35;24.60;44.90
67870;DHT22;54673;52.262;6.830;2023-07-22T10:41:04;24.60;44.90
67870;DHT22;54673;52.262;6.830;2023-07-22T10:43:36;24.60;44.90
67870;DHT22;54673;52.262;6.830;2023-07-22T10:46:07;24.60;45.00
67870;DHT22;54673;52.262;6.830;2023-07-22T10:48:39;24.60;44.90
67870;DHT22;54673;52.262;6.830;2023-07-22T10:51:09;24.60;44.90
67870;DHT22;54673;52.262;6.830;2023-07-22T10:53:48;24.70;44.90
67870;DHT22;54673;52.262;6.830;2023-07-22T10:56:20;24.70;44.70
67870;DHT22;54673;52.262;6.830;2023-07-22T11:06:38;24.70;44.50
67870;DHT22;54673;52.262;6.830;2023-07-22T11:09:04;24.70;44.50
67870;DHT22;54673;52.262;6.830;2023-07-22T11:11:40;24.70;44.60
67870;DHT22;54673;52.262;6.830;2023-07-22T11:14:22;24.70;44.60
67870;DHT22;54673;52.262;6.830;2023-07-22T11:16:49;24.70;44.50
67870;DHT22;54673;52.262;6.830;2023-07-22T11:19:15;24.80;44.50
67870;DHT22;54673;52.262;6.830;2023-07-22T11:21:45;24.80;44.50
67870;DHT22;54673;52.262;6.830;2023-07-22T11:24:11;24.80;44.30
67870;DHT22;54673;52.262;6.830;2023-07-22T11:26:38;24.70;44.30
67870;DHT22;54673;52.262;6.830;2023-07-22T11:29:07;24.80;44.20
67870;DHT22;54673;52.262;6.830;2023-07-22T11:31:38;25.00;44.30
67870;DHT22;54673;52.262;6.830;2023-07-22T11:34:21;24.70;44.10
67870;DHT22;54673;52.262;6.830;2023-07-22T11:36:48;24.80;44.20
67870;DHT22;54673;52.262;6.830;2023-07-22T11:39:25;24.80;44.20
67870;DHT22;54673;52.262;6.830;2023-07-22T11:41:51;24.80;43.90
67870;DHT22;54673;52.262;6.830;2023-07-22T11:44:22;24.80;43.70
67870;DHT22;54673;52.262;6.830;2023-07-22T11:47:06;24.80;43.70
67870;DHT22;54673;52.262;6.830;2023-07-22T11:49:41;24.80;43.70
67870;DHT22;54673;52.262;6.830;2023-07-22T11:54:35;24.80;44.00
67870;DHT22;54673;52.262;6.830;2023-07-22T11:57:20;24.80;44.00
67870;DHT22;54673;52.262;6.830;2023-07-22T11:59:54;24.80;44.00
67870;DHT22;54673;52.262;6.830;2023-07-22T12:02:27;24.60;44.00
67870;DHT22;54673;52.262;6.830;2023-07-22T12:05:05;24.70;43.80
67870;DHT22;54673;52.262;6.830;2023-07-22T12:07:33;24.60;44.10
67870;DHT22;54673;52.262;6.830;2023-07-22T12:10:00;24.60;43.90
67870;DHT22;54673;52.262;6.830;2023-07-22T12:12:47;24.60;44.00
67870;DHT22;54673;52.262;6.830;2023-07-22T12:15:22;24.60;44.00
67870;DHT22;54673;52.262;6.830;2023-07-22T12:17:53;24.60;44.30
67870;DHT22;54673;52.262;6.830;2023-07-22T12:20:29;24.60;43.60
67870;DHT22;54673;52.262;6.830;2023-07-22T12:22:56;24.60;43.60
67870;DHT22;54673;52.262;6.830;2023-07-22T12:25:22;24.60;43.60
67870;DHT22;54673;52.262;6.830;2023-07-22T12:27:48;24.50;43.50
67870;DHT22;54673;52.262;6.830;2023-07-22T12:30:13;24.50;43.50
67870;DHT22;54673;52.262;6.830;2023-07-22T12:32:40;24.50;43.50
67870;DHT22;54673;52.262;6.830;2023-07-22T12:35:06;24.50;43.50
67870;DHT22;54673;52.262;6.830;2023-07-22T12:37:32;24.50;43.50
67870;DHT22;54673;52.262;6.830;2023-07-22T12:39:58;24.50;43.60
67870;DHT22;54673;52.262;6.830;2023-07-22T12:42:23;24.50;43.50
67870;DHT22;54673;52.262;6.830;2023-07-22T12:44:49;24.50;43.70
67870;DHT22;54673;52.262;6.830;2023-07-22T12:47:14;24.50;43.60
67870;DHT22;54673;52.262;6.830;2023-07-22T12:49:40;24.50;43.60
67870;DHT22;54673;52.262;6.830;2023-07-22T12:52:06;24.40;43.90
67870;DHT22;54673;52.262;6.830;2023-07-22T12:54:35;24.40;44.10
67870;DHT22;54673;52.262;6.830;2023-07-22T12:57:01;24.40;44.20
67870;DHT22;54673;52.262;6.830;2023-07-22T12:59:27;24.40;44.20
67870;DHT22;54673;52.262;6.830;2023-07-22T13:01:52;24.40;44.50
67870;DHT22;54673;52.262;6.830;2023-07-22T13:04:19;24.50;44.50
67870;DHT22;54673;52.262;6.830;2023-07-22T13:06:44;24.50;44.50
67870;DHT22;54673;52.262;6.830;2023-07-22T13:09:10;24.50;44.60
67870;DHT22;54673;52.262;6.830;2023-07-22T13:11:35;24.60;44.90
67870;DHT22;54673;52.262;6.830;2023-07-22T13:14:02;24.60;44.90
67870;DHT22;54673;52.262;6.830;2023-07-22T13:16:27;24.60;45.00
67870;DHT22;54673;52.262;6.830;2023-07-22T13:18:53;24.60;45.00
67870;DHT22;54673;52.262;6.830;2023-07-22T13:21:19;24.70;45.00
67870;DHT22;54673;52.262;6.830;2023-07-22T13:23:44;24.70;45.10
67870;DHT22;54673;52.262;6.830;2023-07-22T13:26:10;24.70;45.00
67870;DHT22;54673;52.262;6.830;2023-07-22T13:28:35;24.80;45.10
67870;DHT22;54673;52.262;6.830;2023-07-22T13:31:01;24.80;45.30
67870;DHT22;54673;52.262;6.830;2023-07-22T13:33:26;24.80;45.20
67870;DHT22;54673;52.262;6.830;2023-07-22T13:35:52;24.80;45.10
67870;DHT22;54673;52.262;6.830;2023-07-22T13:38:18;24.80;45.10
67870;DHT22;54673;52.262;6.830;2023-07-22T13:40:44;24.80;45.00
67870;DHT22;54673;52.262;6.830;2023-07-22T13:43:09;24.80;45.00
67870;DHT22;54673;52.262;6.830;2023-07-22T13:45:35;24.80;45.00
67870;DHT22;54673;52.262;6.830;2023-07-22T13:48:01;24.80;45.10
67870;DHT22;54673;52.262;6.830;2023-07-22T13:50:26;24.90;45.10
67870;DHT22;54673;52.262;6.830;2023-07-22T13:52:52;24.90;45.10
67870;DHT22;54673;52.262;6.830;2023-07-22T13:55:18;24.80;44.90
67870;DHT22;54673;52.262;6.830;2023-07-22T13:57:43;24.90;45.00
67870;DHT22;54673;52.262;6.830;2023-07-22T14:00:09;24.80;44.90
67870;DHT22;54673;52.262;6.830;2023-07-22T14:02:36;24.90;45.10
67870;DHT22;54673;52.262;6.830;2023-07-22T14:05:02;24.90;45.00
67870;DHT22;54673;52.262;6.830;2023-07-22T14:07:28;24.90;45.00
67870;DHT22;54673;52.262;6.830;2023-07-22T14:09:54;25.00;45.00
67870;DHT22;54673;52.262;6.830;2023-07-22T14:12:19;25.00;45.00
67870;DHT22;54673;52.262;6.830;2023-07-22T14:14:45;24.90;45.00
67870;DHT22;54673;52.262;6.830;2023-07-22T14:17:10;24.90;44.80
67870;DHT22;54673;52.262;6.830;2023-07-22T14:19:36;24.90;44.80
67870;DHT22;54673;52.262;6.830;2023-07-22T14:22:02;24.90;44.90
67870;DHT22;54673;52.262;6.830;2023-07-22T14:24:27;24.90;45.00
67870;DHT22;54673;52.262;6.830;2023-07-22T14:26:53;24.90;45.10
67870;DHT22;54673;52.262;6.830;2023-07-22T14:29:19;24.90;45.10
67870;DHT22;54673;52.262;6.830;2023-07-22T14:31:46;24.80;45.30
67870;DHT22;54673;52.262;6.830;2023-07-22T14:34:11;24.90;45.60
67870;DHT22;54673;52.262;6.830;2023-07-22T14:36:37;24.90;45.80
67870;DHT22;54673;52.262;6.830;2023-07-22T14:39:03;24.90;45.80
67870;DHT22;54673;52.262;6.830;2023-07-22T14:41:30;24.80;46.00
67870;DHT22;54673;52.262;6.830;2023-07-22T14:43:56;24.80;46.10
67870;DHT22;54673;52.262;6.830;2023-07-22T14:46:21;24.90;46.10
67870;DHT22;54673;52.262;6.830;2023-07-22T14:48:47;24.90;46.30
67870;DHT22;54673;52.262;6.830;2023-07-22T14:51:13;24.90;46.30
67870;DHT22;54673;52.262;6.830;2023-07-22T14:53:38;24.90;46.40
67870;DHT22;54673;52.262;6.830;2023-07-22T14:56:04;24.90;46.40
67870;DHT22;54673;52.262;6.830;2023-07-22T14:58:31;24.90;46.40
67870;DHT22;54673;52.262;6.830;2023-07-22T15:00:57;24.90;46.50
67870;DHT22;54673;52.262;6.830;2023-07-22T15:03:23;24.90;46.40
67870;DHT22;54673;52.262;6.830;2023-07-22T15:05:48;25.00;46.50
67870;DHT22;54673;52.262;6.830;2023-07-22T15:08:14;25.00;46.30
67870;DHT22;54673;52.262;6.830;2023-07-22T15:10:40;25.00;46.30
67870;DHT22;54673;52.262;6.830;2023-07-22T15:13:05;25.00;46.30
67870;DHT22;54673;52.262;6.830;2023-07-22T15:15:31;25.00;46.20
67870;DHT22;54673;52.262;6.830;2023-07-22T15:17:56;24.90;46.00
67870;DHT22;54673;52.262;6.830;2023-07-22T15:20:22;25.00;46.20
67870;DHT22;54673;52.262;6.830;2023-07-22T15:22:48;24.90;46.00
67870;DHT22;54673;52.262;6.830;2023-07-22T15:25:14;25.00;45.90
67870;DHT22;54673;52.262;6.830;2023-07-22T15:27:40;24.90;45.80
67870;DHT22;54673;52.262;6.830;2023-07-22T15:30:06;24.90;45.90
67870;DHT22;54673;52.262;6.830;2023-07-22T15:32:32;25.00;45.80
67870;DHT22;54673;52.262;6.830;2023-07-22T15:34:58;25.00;45.90
67870;DHT22;54673;52.262;6.830;2023-07-22T15:37:23;25.00;45.80
67870;DHT22;54673;52.262;6.830;2023-07-22T15:39:50;25.00;45.80